Time;durP1;ratioP1;P1;durP2;ratioP2;P2;SDS_P1;SDS_P2;PMS_P1;PMS_P2;Temp;Humidity;BMP_temperature;BMP_pressure;BME280_temperature;BME280_humidity;BME280_pressure;Samples;Min_cycle;Max_cycle;Signal;HPM_P1;HPM_P2
2021/11/03 00:01:15;;;;;;;37.70;23.80;;;;;;;8.69;85.73;98895.45;1757288;80;21539;-59
2021/11/03 00:03:43;;;;;;;36.58;25.00;;;;;;;8.78;85.49;98905.97;1749713;80;21499;-59
2021/11/03 00:06:10;;;;;;;36.58;24.10;;;;;;;8.79;85.36;98897.63;1763384;80;21574;-59
2021/11/03 00:08:36;;;;;;;38.15;24.82;;;;;;;8.74;85.25;98895.24;1759316;80;21546;-59
2021/11/03 00:11:03;;;;;;;35.92;24.25;;;;;;;8.63;85.32;98891.81;1762904;80;22044;-58
2021/11/03 00:13:32;;;;;;;31.60;23.00;;;;;;;8.58;85.87;98892.47;1757375;80;20998;-59
2021/11/03 00:15:59;;;;;;;37.10;24.72;;;;;;;8.70;85.83;98891.05;1767528;80;21628;-59
2021/11/03 00:18:27;;;;;;;35.45;25.17;;;;;;;8.75;85.80;98893.84;1754471;80;21589;-59
2021/11/03 00:20:57;;;;;;;40.55;25.88;;;;;;;8.72;85.56;98894.44;1750984;80;21516;-59
2021/11/03 00:23:24;;;;;;;39.10;25.00;;;;;;;8.64;85.78;98886.94;1763100;80;21882;-59
2021/11/03 00:25:51;;;;;;;36.28;22.55;;;;;;;8.66;85.91;98891.64;1763293;80;28513;-59
2021/11/03 00:28:19;;;;;;;35.30;25.08;;;;;;;8.75;85.84;98893.84;1753969;80;21562;-59
2021/11/03 00:30:48;;;;;;;37.58;24.80;;;;;;;8.78;85.64;98892.86;1750701;80;21502;-61
2021/11/03 00:33:16;;;;;;;38.00;24.37;;;;;;;8.77;85.58;98893.77;1757020;80;21499;-59
2021/11/03 00:35:42;;;;;;;39.18;24.27;;;;;;;8.74;85.64;98890.00;1763539;80;22012;-59
2021/11/03 00:38:09;;;;;;;37.55;23.42;;;;;;;8.76;85.69;98891.62;1752951;80;21601;-59
2021/11/03 00:40:36;;;;;;;36.20;24.12;;;;;;;8.87;85.34;98891.12;1754930;80;21521;-58
2021/11/03 00:43:03;;;;;;;39.73;24.57;;;;;;;8.82;85.24;98890.95;1768753;80;21056;-59
2021/11/03 00:45:30;;;;;;;38.05;24.87;;;;;;;8.75;85.57;98895.15;1757956;80;21601;-59
2021/11/03 00:47:57;;;;;;;43.68;24.60;;;;;;;8.68;85.68;98890.27;1759776;80;21673;-58
2021/11/03 00:50:25;;;;;;;36.00;22.02;;;;;;;8.69;85.79;98889.36;1746456;80;21057;-58
2021/11/03 00:52:52;;;;;;;35.20;23.10;;;;;;;8.79;85.82;98896.33;1747203;80;21527;-58
2021/11/03 00:55:19;;;;;;;37.17;23.22;;;;;;;8.83;85.77;98892.62;1747096;80;21566;-58
2021/11/03 00:57:46;;;;;;;36.83;23.67;;;;;;;8.83;85.70;98889.54;1741140;80;21590;-58
2021/11/03 01:00:14;;;;;;;36.77;21.48;;;;;;;8.82;85.61;98892.26;1748662;80;21909;-58
2021/11/03 01:02:41;;;;;;;30.65;22.65;;;;;;;8.82;85.47;98893.09;1746416;80;21610;-58
2021/11/03 01:05:10;;;;;;;35.92;24.50;;;;;;;8.88;85.53;98891.48;1747328;80;21495;-58
2021/11/03 01:07:38;;;;;;;34.85;24.37;;;;;;;8.91;85.43;98887.86;1750364;80;21583;-57
2021/11/03 01:10:05;;;;;;;35.33;24.47;;;;;;;8.87;85.27;98891.55;1738740;80;21392;-58
2021/11/03 01:12:33;;;;;;;33.02;22.98;;;;;;;8.82;85.46;98883.09;1747957;80;26940;-58
2021/11/03 01:14:59;;;;;;;33.63;22.70;;;;;;;8.85;85.50;98885.54;1751962;80;21491;-59
2021/11/03 01:17:27;;;;;;;32.67;23.50;;;;;;;8.94;85.41;98880.70;1745570;80;21435;-58
2021/11/03 01:19:54;;;;;;;32.53;23.77;;;;;;;9.00;85.21;98882.17;1748642;80;21582;-59
2021/11/03 01:22:20;;;;;;;40.50;26.75;;;;;;;8.95;85.19;98886.34;1749877;80;21644;-59
2021/11/03 01:24:47;;;;;;;32.30;22.40;;;;;;;8.92;85.25;98885.17;1750894;80;21392;-58
2021/11/03 01:27:14;;;;;;;33.48;23.42;;;;;;;8.94;85.27;98885.10;1746901;80;21590;-59
2021/11/03 01:29:41;;;;;;;39.73;24.45;;;;;;;8.96;85.28;98883.25;1755295;80;21495;-58
2021/11/03 01:32:08;;;;;;;36.23;24.35;;;;;;;8.98;85.30;98882.72;1742951;80;21003;-59
2021/11/03 01:34:34;;;;;;;32.55;22.98;;;;;;;8.94;85.35;98883.32;1750233;80;21590;-58
2021/11/03 01:37:02;;;;;;;35.23;22.70;;;;;;;8.90;85.42;98875.22;1751352;80;21813;-58
2021/11/03 01:39:29;;;;;;;30.80;22.05;;;;;;;8.93;85.46;98882.11;1757000;80;20939;-58
2021/11/03 01:41:56;;;;;;;32.57;22.53;;;;;;;8.95;85.49;98879.79;1755576;80;21499;-59
2021/11/03 01:44:23;;;;;;;36.87;23.37;;;;;;;8.94;85.53;98883.79;1748465;80;20980;-59
2021/11/03 01:46:57;;;;;;;34.35;22.07;;;;;;;8.87;85.78;98889.80;1752970;80;21573;-58
2021/11/03 01:49:29;;;;;;;33.38;21.80;;;;;;;8.86;86.06;98887.25;1732198;80;21856;-59
2021/11/03 01:52:11;;;;;;;30.05;21.30;;;;;;;8.91;86.10;98881.30;1758174;80;21550;-58
2021/11/03 01:54:47;;;;;;;30.80;21.12;;;;;;;9.04;85.88;98882.44;1751811;80;21005;-59
2021/11/03 01:57:19;;;;;;;33.05;21.85;;;;;;;9.09;85.54;98883.52;1752513;80;21507;-59
2021/11/03 01:59:50;;;;;;;31.80;23.27;;;;;;;9.03;85.57;98881.20;1755836;80;21598;-59
2021/11/03 02:02:19;;;;;;;32.33;22.13;;;;;;;8.96;85.67;98885.41;1754088;80;21535;-58
2021/11/03 02:04:46;;;;;;;33.00;22.37;;;;;;;8.96;85.83;98881.47;1735649;80;21633;-58
2021/11/03 02:07:22;;;;;;;29.02;21.62;;;;;;;9.07;85.81;98884.05;1754903;80;21041;-59
2021/11/03 02:09:51;;;;;;;31.17;22.77;;;;;;;9.10;85.58;98879.98;1740094;80;21538;-57
2021/11/03 02:12:25;;;;;;;30.50;21.30;;;;;;;9.05;85.79;98880.19;1750538;80;21518;-58
2021/11/03 02:14:53;;;;;;;27.25;19.82;;;;;;;9.05;85.74;98877.56;1747343;80;21770;-58
2021/11/03 02:17:21;;;;;;;27.20;21.48;;;;;;;9.08;85.73;98875.24;1740731;80;21585;-57
2021/11/03 02:19:49;;;;;;;27.35;20.82;;;;;;;9.16;85.65;98872.64;1743614;80;21026;-58
2021/11/03 02:22:27;;;;;;;27.62;20.62;;;;;;;9.16;85.43;98871.80;1750130;80;21562;-59
2021/11/03 02:25:13;;;;;;;28.17;20.17;;;;;;;9.06;85.67;98869.23;1750340;80;21593;-58
2021/11/03 02:27:42;;;;;;;27.80;18.77;;;;;;;9.09;85.93;98881.73;1735399;80;21778;-57
2021/11/03 02:30:12;;;;;;;27.48;19.35;;;;;;;9.11;85.84;98884.28;1752968;80;21018;-57
2021/11/03 02:32:41;;;;;;;25.55;19.62;;;;;;;9.20;85.79;98879.90;1749165;80;21551;-57
2021/11/03 02:35:08;;;;;;;26.05;19.42;;;;;;;9.23;85.50;98886.31;1719843;81;21540;-58
2021/11/03 02:37:47;;;;;;;31.85;21.00;;;;;;;9.15;85.62;98887.14;1755273;80;21429;-57
2021/11/03 02:40:37;;;;;;;27.00;19.48;;;;;;;9.08;86.00;98884.42;1756254;80;22059;-58
2021/11/03 02:43:15;;;;;;;23.92;19.48;;;;;;;9.11;86.16;98896.08;1742698;80;21560;-58
2021/11/03 02:45:48;;;;;;;28.30;20.40;;;;;;;9.16;86.09;98892.78;1746078;80;20990;-59
2021/11/03 02:48:16;;;;;;;26.52;20.52;;;;;;;9.12;86.14;98893.86;1744536;80;21452;-58
2021/11/03 02:50:58;;;;;;;25.20;19.82;;;;;;;9.09;86.52;98900.09;1700417;81;21489;-58
2021/11/03 02:53:26;;;;;;;25.80;18.73;;;;;;;9.08;86.55;98899.72;1727120;80;21812;-58
2021/11/03 02:55:52;;;;;;;26.60;19.80;;;;;;;9.14;86.52;98902.50;1736290;80;21526;-59
2021/11/03 02:58:19;;;;;;;26.60;20.82;;;;;;;9.15;86.59;98901.13;1730542;80;21605;-58
2021/11/03 03:00:47;;;;;;;28.77;19.80;;;;;;;9.13;86.67;98909.97;1727055;82;21479;-59
2021/11/03 03:03:14;;;;;;;;;;;;;;;9.11;86.67;98905.27;1737377;82;21585;-59
2021/11/03 03:05:45;;;;;;;26.75;19.02;;;;;;;9.12;86.71;98911.75;1731718;80;22041;-58
2021/11/03 03:08:13;;;;;;;27.13;20.37;;;;;;;9.18;86.69;98905.36;1728220;80;21076;-58
2021/11/03 03:10:40;;;;;;;27.20;20.27;;;;;;;9.18;86.48;98901.89;1726912;80;21560;-58
2021/11/03 03:13:08;;;;;;;27.75;19.62;;;;;;;9.10;86.46;98906.20;1718329;80;21504;-58
2021/11/03 03:15:36;;;;;;;26.45;19.82;;;;;;;9.01;86.79;98906.17;1735558;80;21620;-59
2021/11/03 03:18:03;;;;;;;25.17;18.77;;;;;;;9.06;87.01;98904.19;1719799;82;21870;-59
2021/11/03 03:20:30;;;;;;;27.75;18.90;;;;;;;9.17;86.86;98895.78;1725110;80;21564;-58
2021/11/03 03:22:58;;;;;;;26.00;19.15;;;;;;;9.15;86.73;98893.26;1737346;80;21533;-59
2021/11/03 03:25:26;;;;;;;23.32;18.52;;;;;;;9.10;86.71;98882.60;1732112;80;21540;-58
2021/11/03 03:27:54;;;;;;;26.90;19.73;;;;;;;9.07;87.10;98882.73;1727572;81;21538;-58
2021/11/03 03:30:20;;;;;;;24.23;19.12;;;;;;;9.09;87.01;98882.20;1725933;80;21751;-58
2021/11/03 03:32:47;;;;;;;26.27;20.08;;;;;;;9.12;86.98;98883.38;1723543;80;21471;-58
2021/11/03 03:35:17;;;;;;;25.92;19.92;;;;;;;9.07;87.22;98886.67;1722904;82;21487;-58
2021/11/03 03:37:45;;;;;;;24.27;18.50;;;;;;;9.05;87.27;98887.22;1727674;81;21595;-57
2021/11/03 03:40:12;;;;;;;28.32;19.75;;;;;;;9.07;87.39;98891.92;1729495;82;21515;-58
2021/11/03 03:42:39;;;;;;;29.05;20.43;;;;;;;9.12;87.39;98893.86;1733726;82;27172;-58
2021/11/03 03:45:08;;;;;;;;;;;;;;;9.10;87.43;98901.80;1732181;80;21412;-58
2021/11/03 03:47:35;;;;;;;29.85;21.00;;;;;;;9.06;87.69;98898.07;1723753;80;20444;-58
2021/11/03 03:50:03;;;;;;;23.62;19.02;;;;;;;8.99;87.59;98896.70;1747724;81;21423;-58
2021/11/03 03:52:32;;;;;;;30.30;20.30;;;;;;;9.00;87.88;98899.22;1753506;81;20930;-57
2021/11/03 03:54:59;;;;;;;28.23;20.95;;;;;;;9.03;87.93;98893.84;1738881;81;21768;-57
2021/11/03 03:57:26;;;;;;;27.60;20.12;;;;;;;9.02;88.01;98891.28;1756373;81;21096;-58
2021/11/03 03:59:52;;;;;;;27.50;20.62;;;;;;;8.95;88.15;98888.97;1744747;81;21549;-57
2021/11/03 04:02:19;;;;;;;27.07;19.70;;;;;;;8.95;88.62;98888.97;1746318;81;21516;-57
2021/11/03 04:04:46;;;;;;;29.80;20.17;;;;;;;9.03;88.62;98883.34;1734790;81;21573;-59
2021/11/03 04:07:13;;;;;;;28.07;19.77;;;;;;;9.05;88.40;98881.50;1738992;81;21766;-58
2021/11/03 04:09:40;;;;;;;30.75;22.10;;;;;;;9.01;88.58;98890.91;1752134;81;21530;-57
2021/11/03 04:12:09;;;;;;;31.70;20.80;;;;;;;8.95;88.53;98894.20;1746803;81;21527;-58
2021/11/03 04:14:36;;;;;;;29.42;20.92;;;;;;;8.93;88.76;98909.64;1751566;81;20954;-58
2021/11/03 04:17:04;;;;;;;30.70;21.10;;;;;;;8.96;88.91;98902.45;1745622;81;21448;-58
2021/11/03 04:19:31;;;;;;;;;;;;;;;8.99;88.90;98905.88;1741446;81;21789;-58
2021/11/03 04:21:58;;;;;;;30.80;21.35;;;;;;;8.96;89.17;98906.38;1758220;80;20513;-58
2021/11/03 04:24:27;;;;;;;28.57;19.73;;;;;;;8.92;89.45;98906.61;1758383;81;20947;-58
2021/11/03 04:26:54;;;;;;;;;;;;;;;8.97;89.29;98908.56;1747951;81;21021;-59
2021/11/03 04:29:22;;;;;;;32.08;21.87;;;;;;;9.03;89.16;98906.11;1757348;81;20493;-59
2021/11/03 04:31:49;;;;;;;31.02;22.00;;;;;;;9.05;89.14;98903.78;1737083;81;21654;-58
2021/11/03 04:34:17;;;;;;;29.67;21.50;;;;;;;9.06;89.01;98913.80;1745315;81;21463;-58
2021/11/03 04:36:44;;;;;;;28.95;21.62;;;;;;;9.03;88.92;98905.64;1747454;81;21591;-57
2021/11/03 04:39:11;;;;;;;29.23;20.65;;;;;;;9.05;89.08;98916.06;1742692;80;21543;-57
2021/11/03 04:41:40;;;;;;;28.10;20.43;;;;;;;9.08;89.00;98914.58;1741677;81;21447;-58
2021/11/03 04:44:07;;;;;;;26.93;20.52;;;;;;;9.12;88.86;98918.78;1752358;81;21768;-58
2021/11/03 04:46:36;;;;;;;26.73;19.23;;;;;;;9.10;88.95;98922.78;1744911;81;21544;-58
2021/11/03 04:49:02;;;;;;;30.27;18.83;;;;;;;9.08;88.83;98922.45;1753569;81;21022;-58
2021/11/03 04:51:29;;;;;;;26.35;19.55;;;;;;;9.10;88.99;98918.01;1747208;80;21797;-58
2021/11/03 04:53:56;;;;;;;31.40;19.55;;;;;;;9.15;88.85;98923.42;1739948;80;21601;-58
2021/11/03 04:56:24;;;;;;;25.35;19.45;;;;;;;9.19;88.92;98929.33;1754924;80;21799;-58
2021/11/03 04:58:51;;;;;;;26.87;18.62;;;;;;;9.24;88.85;98926.03;1754632;80;21593;-58
2021/11/03 05:01:22;;;;;;;28.35;18.73;;;;;;;9.20;88.49;98933.67;1747793;80;21038;-58
2021/11/03 05:03:50;;;;;;;23.60;18.30;;;;;;;9.18;88.73;98926.81;1740145;80;21566;-58
2021/11/03 05:06:20;;;;;;;22.58;17.27;;;;;;;9.23;88.72;98928.73;1740702;80;21457;-58
2021/11/03 05:08:49;;;;;;;24.00;17.75;;;;;;;9.26;88.67;98935.98;1748865;80;21762;-58
2021/11/03 05:11:18;;;;;;;21.40;17.37;;;;;;;9.22;88.60;98932.29;1740826;80;21500;-58
2021/11/03 05:13:48;;;;;;;19.30;15.65;;;;;;;9.19;88.63;98938.52;1747823;80;21454;-58
2021/11/03 05:16:18;;;;;;;20.62;15.98;;;;;;;9.23;88.68;98937.91;1743121;80;20982;-58
2021/11/03 05:18:46;;;;;;;21.82;16.07;;;;;;;9.28;88.66;98935.45;1754752;80;21451;-58
2021/11/03 05:21:13;;;;;;;20.50;17.23;;;;;;;9.28;88.49;98935.45;1746680;80;21821;-58
2021/11/03 05:23:41;;;;;;;19.87;15.88;;;;;;;9.26;88.50;98926.80;1721933;82;20952;-57
2021/11/03 05:26:08;;;;;;;16.75;14.90;;;;;;;9.27;88.48;98931.14;1748646;80;21500;-58
2021/11/03 05:28:37;;;;;;;18.25;14.30;;;;;;;9.35;88.32;98928.14;1745844;80;21066;-57
2021/11/03 05:31:04;;;;;;;16.32;13.70;;;;;;;9.35;88.37;98942.57;1751274;80;21552;-55
2021/11/03 05:33:31;;;;;;;13.73;12.30;;;;;;;9.31;88.29;98940.55;1744533;80;21856;-55
2021/11/03 05:35:58;;;;;;;13.30;11.80;;;;;;;9.31;88.33;98935.31;1748955;80;22266;-56
2021/11/03 05:38:25;;;;;;;12.20;11.03;;;;;;;9.38;88.16;98936.31;1748661;80;21539;-54
2021/11/03 05:40:51;;;;;;;16.17;11.43;;;;;;;9.42;88.06;98932.61;1742967;80;21520;-53
2021/11/03 05:43:18;;;;;;;14.03;11.10;;;;;;;9.45;88.01;98938.55;1760337;80;21494;-55
2021/11/03 05:45:45;;;;;;;14.45;12.00;;;;;;;9.46;88.03;98948.14;1749828;80;21848;-56
2021/11/03 05:48:11;;;;;;;11.20;9.78;;;;;;;9.45;87.97;98963.48;1698536;80;20997;-54
2021/11/03 05:50:38;;;;;;;11.10;9.43;;;;;;;9.48;87.74;98969.91;1762587;80;21645;-56
2021/11/03 05:53:05;;;;;;;12.47;10.20;;;;;;;9.56;87.68;98983.96;1755089;80;21196;-55
2021/11/03 05:55:32;;;;;;;10.15;9.10;;;;;;;9.58;87.60;98989.98;1742526;80;21643;-55
2021/11/03 05:58:00;;;;;;;9.80;8.80;;;;;;;9.57;87.63;98997.48;1751942;80;22144;-55
2021/11/03 06:00:33;;;;;;;8.60;7.35;;;;;;;9.55;87.49;99005.90;1749284;80;21566;-54
2021/11/03 06:03:01;;;;;;;8.68;7.75;;;;;;;9.58;87.54;99006.20;1748728;80;21441;-54
2021/11/03 06:05:29;;;;;;;8.23;7.22;;;;;;;9.65;87.49;99010.23;1761016;80;21459;-54
2021/11/03 06:07:58;;;;;;;;;;;;;;;9.63;87.26;99007.67;1748983;80;21509;-54
2021/11/03 06:10:34;;;;;;;6.87;5.78;;;;;;;9.57;87.48;99019.80;1749312;80;21775;-55
2021/11/03 06:13:02;;;;;;;6.78;6.17;;;;;;;9.52;87.66;99009.97;1736333;80;21504;-54
2021/11/03 06:15:30;;;;;;;5.78;5.20;;;;;;;9.64;87.61;99019.02;1750275;80;21570;-56
2021/11/03 06:18:00;;;;;;;5.85;5.25;;;;;;;9.69;87.25;99012.61;1749510;80;21519;-55
2021/11/03 06:20:27;;;;;;;6.20;5.70;;;;;;;9.66;87.34;99016.72;1752007;80;21516;-55
2021/11/03 06:22:54;;;;;;;5.30;4.58;;;;;;;9.63;87.20;99023.42;1752697;80;22073;-55
2021/11/03 06:25:21;;;;;;;7.05;4.78;;;;;;;9.60;87.35;99030.12;1752288;80;21031;-55
2021/11/03 06:27:48;;;;;;;4.80;4.40;;;;;;;9.66;87.34;99031.16;1739016;80;21045;-56
2021/11/03 06:30:18;;;;;;;5.60;5.20;;;;;;;9.66;87.26;99029.84;1745850;80;21424;-59
2021/11/03 06:32:44;;;;;;;5.80;5.30;;;;;;;9.59;87.33;99034.13;1736559;80;21487;-55
2021/11/03 06:35:13;;;;;;;7.30;5.33;;;;;;;9.51;87.70;99031.88;1750329;80;22060;-55
2021/11/03 06:37:41;;;;;;;6.45;5.87;;;;;;;9.57;87.89;99035.54;1734953;80;21574;-55
2021/11/03 06:40:10;;;;;;;6.30;5.80;;;;;;;9.65;87.75;99039.94;1758482;80;21423;-58
2021/11/03 06:42:37;;;;;;;14.65;11.53;;;;;;;9.68;87.79;99040.24;1756892;80;20982;-55
2021/11/03 06:45:05;;;;;;;10.23;8.33;;;;;;;9.64;87.67;99043.95;1755773;80;21536;-55
2021/11/03 06:47:32;;;;;;;10.13;7.03;;;;;;;9.58;88.12;99039.00;1744796;80;21502;-55
2021/11/03 06:49:59;;;;;;;11.57;9.50;;;;;;;9.66;88.17;99049.97;1753476;80;21546;-55
2021/11/03 06:52:29;;;;;;;13.48;11.30;;;;;;;9.70;88.08;99048.45;1755169;80;21477;-55
2021/11/03 06:54:56;;;;;;;12.15;10.28;;;;;;;9.68;88.08;99054.24;1759482;80;21065;-55
2021/11/03 06:57:22;;;;;;;9.28;8.35;;;;;;;9.61;88.12;99051.52;1753018;80;21468;-55
2021/11/03 06:59:51;;;;;;;10.18;6.95;;;;;;;9.60;88.45;99048.97;1756510;80;21806;-55
2021/11/03 07:02:18;;;;;;;7.90;7.15;;;;;;;9.65;88.61;99050.45;1768089;80;21476;-55
2021/11/03 07:04:45;;;;;;;9.00;8.13;;;;;;;9.64;89.00;99057.07;1769841;80;21679;-55
2021/11/03 07:07:12;;;;;;;8.45;7.58;;;;;;;9.64;88.76;99060.54;1771720;80;21527;-55
2021/11/03 07:09:38;;;;;;;8.37;7.57;;;;;;;9.59;88.98;99062.56;1749206;80;21574;-53
2021/11/03 07:12:06;;;;;;;7.80;7.08;;;;;;;9.64;89.06;99065.79;1756870;80;21875;-54
2021/11/03 07:14:35;;;;;;;7.97;7.08;;;;;;;9.72;89.14;99066.29;1747042;80;21523;-53
2021/11/03 07:17:03;;;;;;;8.48;7.67;;;;;;;9.79;89.02;99069.45;1756215;80;24212;-54
2021/11/03 07:19:30;;;;;;;9.50;8.60;;;;;;;9.78;88.83;99066.45;1756099;80;21516;-57
2021/11/03 07:21:57;;;;;;;8.10;7.30;;;;;;;9.75;89.00;99074.00;1727345;82;21078;-57
2021/11/03 07:24:23;;;;;;;9.10;8.23;;;;;;;9.81;89.13;99070.70;1754898;80;21495;-57
2021/11/03 07:26:51;;;;;;;8.90;7.97;;;;;;;9.87;89.15;99069.08;1759963;80;21549;-56
2021/11/03 07:29:18;;;;;;;8.70;7.75;;;;;;;9.92;88.96;99064.45;1753103;80;21112;-57
2021/11/03 07:31:44;;;;;;;8.18;7.35;;;;;;;9.92;89.04;99067.08;1753085;80;21713;-56
2021/11/03 07:34:11;;;;;;;8.60;7.22;;;;;;;9.94;88.93;99063.47;1749013;80;21577;-56
2021/11/03 07:36:38;;;;;;;8.95;7.20;;;;;;;9.96;89.09;99067.78;1754558;80;21805;-54
2021/11/03 07:39:05;;;;;;;8.65;7.80;;;;;;;10.02;88.97;99074.91;1760109;80;21545;-55
2021/11/03 07:41:34;;;;;;;8.58;7.67;;;;;;;10.08;88.92;99071.97;1755388;80;21064;-56
2021/11/03 07:44:04;;;;;;;8.75;7.85;;;;;;;10.00;88.79;99058.38;1749010;80;21622;-54
2021/11/03 07:46:31;;;;;;;7.90;7.10;;;;;;;10.06;88.92;99067.26;1753698;80;21605;-55
2021/11/03 07:48:58;;;;;;;8.93;8.03;;;;;;;10.11;89.21;99073.58;1758958;80;22009;-55
2021/11/03 07:51:25;;;;;;;9.60;7.37;;;;;;;10.23;88.96;99076.08;1751639;80;21037;-55
2021/11/03 07:53:58;;;;;;;8.35;7.35;;;;;;;10.23;88.91;99073.45;1762495;80;21447;-55
2021/11/03 07:56:23;;;;;;;7.97;7.22;;;;;;;10.22;88.52;99078.30;1756493;80;21443;-55
2021/11/03 07:58:51;;;;;;;7.37;6.78;;;;;;;10.17;88.67;99077.67;1746702;80;21066;-55
2021/11/03 08:01:19;;;;;;;7.97;7.17;;;;;;;10.19;88.75;99081.08;1749113;80;22004;-56
2021/11/03 08:03:46;;;;;;;11.93;9.85;;;;;;;10.28;88.84;99083.24;1751085;80;21526;-55
2021/11/03 08:06:12;;;;;;;9.50;8.58;;;;;;;10.35;88.89;99082.05;1746011;80;21498;-56
2021/11/03 08:08:49;;;;;;;9.40;8.48;;;;;;;10.36;88.85;99085.07;1746691;80;21577;-56
2021/11/03 08:11:16;;;;;;;10.68;8.40;;;;;;;10.36;89.03;99082.89;1738566;80;21503;-56
2021/11/03 08:13:45;;;;;;;13.45;9.55;;;;;;;10.41;89.13;99086.14;1757082;80;21570;-56
2021/11/03 08:16:12;;;;;;;13.68;9.45;;;;;;;10.50;89.00;99093.08;1737625;80;21015;-55
2021/11/03 08:18:41;;;;;;;12.63;10.28;;;;;;;10.54;88.63;99096.41;1705702;80;21496;-56
2021/11/03 08:21:11;;;;;;;9.90;8.65;;;;;;;10.48;88.77;99089.69;1744874;80;21658;-58
2021/11/03 08:23:38;;;;;;;12.60;9.50;;;;;;;10.47;88.79;99090.62;1741645;80;21864;-56
2021/11/03 08:26:05;;;;;;;10.20;8.73;;;;;;;10.54;89.02;99090.31;1742977;80;21824;-54
2021/11/03 08:28:33;;;;;;;11.12;9.23;;;;;;;10.66;88.81;99090.97;1743080;80;21784;-55
2021/11/03 08:31:00;;;;;;;12.50;9.88;;;;;;;10.75;88.59;99093.13;1741755;80;21547;-55
2021/11/03 08:33:36;;;;;;;13.60;9.98;;;;;;;10.72;88.38;99101.20;1740517;80;21616;-55
2021/11/03 08:36:04;;;;;;;15.88;10.72;;;;;;;10.75;88.53;99095.75;1748641;80;21546;-57
2021/11/03 08:38:32;;;;;;;14.55;10.32;;;;;;;10.82;88.21;99097.61;1745857;80;21788;-55
2021/11/03 08:40:59;;;;;;;13.30;10.25;;;;;;;10.86;87.81;99100.46;1741717;80;21656;-55
2021/11/03 08:43:31;;;;;;;14.28;11.33;;;;;;;10.87;87.56;99109.59;1745770;80;21547;-55
2021/11/03 08:45:59;;;;;;;15.30;10.43;;;;;;;10.83;87.70;99111.13;1688018;83;21526;-56
2021/11/03 08:48:28;;;;;;;12.70;10.28;;;;;;;10.88;87.66;99113.91;1741500;80;21606;-55
2021/11/03 08:50:56;;;;;;;10.72;9.60;;;;;;;10.97;87.79;99122.27;1748312;80;21688;-54
2021/11/03 08:53:24;;;;;;;14.10;11.20;;;;;;;11.02;87.49;99121.53;1745042;80;21634;-55
2021/11/03 08:55:51;;;;;;;14.20;11.65;;;;;;;11.00;87.32;99128.22;1744704;80;21471;-55
2021/11/03 08:58:23;;;;;;;14.47;10.90;;;;;;;10.97;87.51;99137.57;1741771;80;22211;-59
2021/11/03 09:00:52;;;;;;;18.00;11.75;;;;;;;11.00;87.69;99135.23;1745771;80;21618;-55
2021/11/03 09:03:18;;;;;;;15.18;11.38;;;;;;;11.10;87.58;99132.05;1741434;80;21987;-54
2021/11/03 09:05:46;;;;;;;16.27;11.78;;;;;;;11.15;87.22;99134.45;1742821;80;21499;-54
2021/11/03 09:08:13;;;;;;;17.65;12.65;;;;;;;11.17;86.76;99140.92;1741266;80;21557;-55
2021/11/03 09:10:48;;;;;;;17.75;12.70;;;;;;;11.10;86.70;99144.36;1742644;80;21440;-54
2021/11/03 09:13:22;;;;;;;14.70;11.48;;;;;;;11.14;86.70;99142.42;1757068;80;21559;-54
2021/11/03 09:15:49;;;;;;;17.60;13.40;;;;;;;11.21;86.41;99156.48;1745081;80;21542;-54
2021/11/03 09:18:16;;;;;;;18.80;14.05;;;;;;;11.24;86.29;99151.03;1749683;80;21523;-54
2021/11/03 09:20:43;;;;;;;16.50;14.18;;;;;;;11.23;86.26;99151.14;1745357;80;21499;-55
2021/11/03 09:23:10;;;;;;;18.00;14.53;;;;;;;11.16;86.18;99155.02;1743437;80;21085;-55
2021/11/03 09:25:37;;;;;;;22.82;14.13;;;;;;;11.22;86.23;99154.21;1738171;80;21555;-55
2021/11/03 09:28:05;;;;;;;18.80;15.32;;;;;;;11.30;85.99;99151.17;1743287;80;21555;-56
2021/11/03 09:30:32;;;;;;;20.10;15.03;;;;;;;11.36;85.87;99146.91;1742801;80;21045;-55
2021/11/03 09:33:02;;;;;;;19.57;14.45;;;;;;;11.38;86.10;99150.78;1748434;80;21622;-56
2021/11/03 09:35:32;;;;;;;21.65;14.35;;;;;;;11.37;86.06;99156.50;1737705;80;21606;-55
2021/11/03 09:38:00;;;;;;;17.82;14.65;;;;;;;11.41;86.11;99159.34;1748690;80;21603;-56
2021/11/03 09:40:34;;;;;;;20.75;15.88;;;;;;;11.47;85.73;99164.30;1752511;80;22037;-54
2021/11/03 09:43:01;;;;;;;21.60;16.50;;;;;;;11.53;85.52;99165.75;1751776;80;21026;-55
2021/11/03 09:45:34;;;;;;;21.80;17.03;;;;;;;11.50;84.99;99168.53;1676219;81;21615;-56
2021/11/03 09:48:24;;;;;;;18.85;16.15;;;;;;;11.48;84.60;99169.09;1748343;80;21568;-55
2021/11/03 09:50:56;;;;;;;21.85;16.97;;;;;;;11.48;84.92;99178.30;1755124;80;21515;-54
2021/11/03 09:53:40;;;;;;;22.65;17.80;;;;;;;11.55;84.63;99183.63;1756919;80;22051;-53
2021/11/03 09:56:14;;;;;;;20.30;17.48;;;;;;;11.60;84.86;99170.20;1701077;80;21523;-55
2021/11/03 09:59:16;;;;;;;26.17;18.25;;;;;;;11.67;85.14;99177.67;1750715;80;21440;-55
2021/11/03 10:01:48;;;;;;;21.80;16.82;;;;;;;11.72;85.20;99176.13;1696563;80;21538;-54
2021/11/03 10:05:52;;;;;;;25.30;19.55;;;;;;;12.01;84.04;99185.53;1794061;77;23199;-56
2021/11/03 10:08:22;;;;;;;22.82;19.02;;;;;;;11.99;84.05;99194.84;1765333;78;21111;-56
2021/11/03 10:11:04;;;;;;;24.25;19.25;;;;;;;11.99;83.97;99194.84;1760983;80;21520;-56
2021/11/03 10:13:36;;;;;;;20.68;17.17;;;;;;;11.99;84.12;99191.36;1760930;80;21613;-57
2021/11/03 10:16:17;;;;;;;22.65;19.35;;;;;;;12.10;83.94;99198.67;1763018;78;21506;-56
2021/11/03 10:18:56;;;;;;;28.07;20.52;;;;;;;12.15;82.83;99195.29;1766649;78;21602;-59
2021/11/03 10:21:34;;;;;;;25.70;21.15;;;;;;;12.11;82.37;99207.81;1769070;78;21505;-56
2021/11/03 10:24:16;;;;;;;26.15;20.50;;;;;;;11.99;81.16;99204.06;1709677;78;21791;-56
2021/11/03 10:27:12;;;;;;;26.62;20.55;;;;;;;11.94;81.99;99200.85;1762074;78;21490;-56
2021/11/03 10:29:48;;;;;;;31.35;21.70;;;;;;;12.05;81.68;99200.23;1728903;80;21530;-57
2021/11/03 10:32:32;;;;;;;25.15;21.77;;;;;;;12.10;80.85;99207.90;1699449;83;21029;-56
2021/11/03 10:35:27;;;;;;;28.87;21.50;;;;;;;12.18;80.81;99215.73;1704664;83;21506;-56
2021/11/03 10:38:05;;;;;;;25.97;18.92;;;;;;;12.23;81.00;99212.86;1707638;81;21794;-56
2021/11/03 10:40:47;;;;;;;26.17;20.85;;;;;;;12.45;81.20;99209.83;1699507;82;21827;-55
2021/11/03 10:43:31;;;;;;;27.73;22.17;;;;;;;12.56;80.16;99214.02;1703074;82;21069;-54
2021/11/03 10:46:03;;;;;;;28.05;21.80;;;;;;;12.60;79.93;99219.97;1714806;82;21551;-58
2021/11/03 10:48:30;;;;;;;26.65;21.50;;;;;;;12.56;79.52;99219.77;1714538;82;21577;-56
2021/11/03 10:51:05;;;;;;;30.20;22.02;;;;;;;12.77;79.82;99219.86;1715323;82;22066;-55
2021/11/03 10:53:38;;;;;;;26.02;21.93;;;;;;;12.99;78.28;99220.73;1716997;82;21562;-56
2021/11/03 10:56:10;;;;;;;33.00;22.93;;;;;;;13.02;78.04;99216.61;1710511;82;21546;-54
2021/11/03 10:58:41;;;;;;;29.82;24.23;;;;;;;12.97;77.59;99217.34;1713453;82;21041;-56
2021/11/03 11:01:11;;;;;;;29.05;21.48;;;;;;;12.84;77.29;99229.08;1712900;82;21592;-55
2021/11/03 11:03:58;;;;;;;22.73;20.27;;;;;;;12.74;77.11;99227.09;1718071;82;21737;-56
2021/11/03 11:06:47;;;;;;;26.95;22.48;;;;;;;12.75;77.26;99221.73;1684491;84;21527;-55
2021/11/03 11:09:25;;;;;;;24.20;21.23;;;;;;;12.79;76.95;99221.05;1698294;81;21101;-55
2021/11/03 11:12:00;;;;;;;26.48;22.25;;;;;;;12.73;76.72;99231.50;1717236;81;21575;-55
2021/11/03 11:14:30;;;;;;;26.10;21.30;;;;;;;12.71;76.46;99229.90;1709033;81;21487;-56
2021/11/03 11:17:14;;;;;;;26.80;19.80;;;;;;;12.80;77.12;99232.84;1721368;82;22010;-55
2021/11/03 11:20:13;;;;;;;28.57;21.25;;;;;;;12.97;76.29;99243.73;1723130;81;21608;-55
2021/11/03 11:23:09;;;;;;;23.27;19.60;;;;;;;13.16;75.94;99236.88;1722970;82;21504;-56
2021/11/03 11:26:22;;;;;;;23.18;19.75;;;;;;;13.43;74.10;99242.81;1712172;82;21723;-56
2021/11/03 11:29:13;;;;;;;24.10;19.60;;;;;;;13.59;72.94;99245.35;1721287;82;21573;-55
2021/11/03 11:31:57;;;;;;;21.93;18.60;;;;;;;13.69;72.68;99250.43;1723159;82;21566;-55
2021/11/03 11:35:02;;;;;;;24.07;19.07;;;;;;;13.77;71.29;99251.30;1720222;82;21440;-55
2021/11/03 11:37:46;;;;;;;22.87;19.45;;;;;;;13.72;71.67;99253.37;1716620;82;21565;-56
2021/11/03 11:40:31;;;;;;;22.02;19.65;;;;;;;13.74;71.57;99249.69;1718643;81;21013;-55
2021/11/03 11:43:29;;;;;;;24.65;20.75;;;;;;;13.81;71.21;99252.33;1709848;81;21508;-54